sensor_id;sensor_type;location;lat;lon;timestamp;pressure;altitude;pressure_sealevel;temperature;humidity
79347;BME280;68815;48.810;44.482;2023-09-08T00:02:54;100820;;;11.3;51.3
79347;BME280;68815;48.810;44.482;2023-09-08T00:05:56;100821;;;11.4;51
79347;BME280;68815;48.810;44.482;2023-09-08T00:08:57;100817;;;11.3;51.4
79347;BME280;68815;48.810;44.482;2023-09-08T00:11:59;100815;;;11.3;51.3
79347;BME280;68815;48.810;44.482;2023-09-08T00:15:00;100815;;;11.2;51.4
79347;BME280;68815;48.810;44.482;2023-09-08T00:18:02;100819;;;11.1;51.6
79347;BME280;68815;48.810;44.482;2023-09-08T00:21:04;100819;;;11.2;51.2
79347;BME280;68815;48.810;44.482;2023-09-08T00:24:06;100811;;;11.1;51.5
79347;BME280;68815;48.810;44.482;2023-09-08T00:27:07;100814;;;11.3;52.5
79347;BME280;68815;48.810;44.482;2023-09-08T00:30:09;100810;;;11.3;51.9
79347;BME280;68815;48.810;44.482;2023-09-08T00:33:11;100815;;;11.2;51.8
79347;BME280;68815;48.810;44.482;2023-09-08T00:36:12;100809;;;11.2;51.2
79347;BME280;68815;48.810;44.482;2023-09-08T00:39:14;100816;;;11.1;51.3
79347;BME280;68815;48.810;44.482;2023-09-08T00:42:16;100815;;;11.3;53.2
79347;BME280;68815;48.810;44.482;2023-09-08T00:45:18;100813;;;11;51.8
79347;BME280;68815;48.810;44.482;2023-09-08T00:48:19;100814;;;10.8;51.9
79347;BME280;68815;48.810;44.482;2023-09-08T00:51:21;100816;;;10.8;52.6
79347;BME280;68815;48.810;44.482;2023-09-08T00:54:24;100815;;;10.9;51.7
79347;BME280;68815;48.810;44.482;2023-09-08T00:57:25;100813;;;10.9;51.9
79347;BME280;68815;48.810;44.482;2023-09-08T01:00:27;100810;;;10.8;52
79347;BME280;68815;48.810;44.482;2023-09-08T01:03:28;100821;;;10.8;52.2
79347;BME280;68815;48.810;44.482;2023-09-08T01:06:31;100815;;;10.8;51.8
79347;BME280;68815;48.810;44.482;2023-09-08T01:09:34;100823;;;10.8;52.6
79347;BME280;68815;48.810;44.482;2023-09-08T01:12:36;100828;;;10.8;51.7
79347;BME280;68815;48.810;44.482;2023-09-08T01:15:37;100824;;;10.8;52
79347;BME280;68815;48.810;44.482;2023-09-08T01:18:55;100826;;;10.7;53.1
79347;BME280;68815;48.810;44.482;2023-09-08T01:22:06;100826;;;10.7;51.7
79347;BME280;68815;48.810;44.482;2023-09-08T01:25:18;100825;;;10.6;51.9
79347;BME280;68815;48.810;44.482;2023-09-08T01:28:22;100827;;;10.5;52.4
79347;BME280;68815;48.810;44.482;2023-09-08T01:31:24;100828;;;10.5;52.3
79347;BME280;68815;48.810;44.482;2023-09-08T01:34:25;100824;;;10.4;52.3
79347;BME280;68815;48.810;44.482;2023-09-08T01:37:27;100821;;;10.4;52.3
79347;BME280;68815;48.810;44.482;2023-09-08T01:40:29;100825;;;10.3;52.5
79347;BME280;68815;48.810;44.482;2023-09-08T01:43:30;100824;;;10.4;52.9
79347;BME280;68815;48.810;44.482;2023-09-08T01:46:32;100828;;;10.4;52.5
79347;BME280;68815;48.810;44.482;2023-09-08T01:49:33;100829;;;10.4;52.3
79347;BME280;68815;48.810;44.482;2023-09-08T01:52:35;100826;;;10.2;52.9
79347;BME280;68815;48.810;44.482;2023-09-08T01:55:37;100824;;;10.2;53.8
79347;BME280;68815;48.810;44.482;2023-09-08T01:58:38;100833;;;10.1;54
79347;BME280;68815;48.810;44.482;2023-09-08T02:01:39;100827;;;10.2;52.9
79347;BME280;68815;48.810;44.482;2023-09-08T02:04:41;100830;;;10.1;53.2
79347;BME280;68815;48.810;44.482;2023-09-08T02:07:43;100825;;;10;54.1
79347;BME280;68815;48.810;44.482;2023-09-08T02:10:44;100831;;;9.9;54.4
79347;BME280;68815;48.810;44.482;2023-09-08T02:13:47;100824;;;10;53.8
79347;BME280;68815;48.810;44.482;2023-09-08T02:16:49;100831;;;10;54
79347;BME280;68815;48.810;44.482;2023-09-08T02:19:50;100832;;;9.9;54.3
79347;BME280;68815;48.810;44.482;2023-09-08T02:22:53;100827;;;9.8;55.1
79347;BME280;68815;48.810;44.482;2023-09-08T02:25:55;100825;;;9.7;55
79347;BME280;68815;48.810;44.482;2023-09-08T02:28:57;100827;;;9.8;54.5
79347;BME280;68815;48.810;44.482;2023-09-08T02:31:59;100819;;;9.7;54.7
79347;BME280;68815;48.810;44.482;2023-09-08T02:35:00;100822;;;9.6;55.5
79347;BME280;68815;48.810;44.482;2023-09-08T02:38:02;100819;;;9.6;55.4
79347;BME280;68815;48.810;44.482;2023-09-08T02:41:03;100829;;;9.6;55.6
79347;BME280;68815;48.810;44.482;2023-09-08T02:44:05;100829;;;9.4;56.2
79347;BME280;68815;48.810;44.482;2023-09-08T02:47:07;100830;;;9.3;56.4
79347;BME280;68815;48.810;44.482;2023-09-08T02:50:08;100833;;;9.4;56.1
79347;BME280;68815;48.810;44.482;2023-09-08T02:53:10;100833;;;9.5;56.1
79347;BME280;68815;48.810;44.482;2023-09-08T02:56:11;100833;;;9.4;56.5
79347;BME280;68815;48.810;44.482;2023-09-08T02:59:13;100839;;;9.4;56.4
79347;BME280;68815;48.810;44.482;2023-09-08T03:02:14;100838;;;9.3;57
79347;BME280;68815;48.810;44.482;2023-09-08T03:05:16;100840;;;9.3;57
79347;BME280;68815;48.810;44.482;2023-09-08T03:08:17;100844;;;9.4;56.8
79347;BME280;68815;48.810;44.482;2023-09-08T03:11:19;100841;;;9.6;56.5
79347;BME280;68815;48.810;44.482;2023-09-08T03:14:25;100843;;;9.7;56
79347;BME280;68815;48.810;44.482;2023-09-08T03:17:28;100847;;;9.7;56
79347;BME280;68815;48.810;44.482;2023-09-08T03:20:29;100848;;;9.8;55.9
79347;BME280;68815;48.810;44.482;2023-09-08T03:23:31;100847;;;9.9;55.6
79347;BME280;68815;48.810;44.482;2023-09-08T03:26:32;100852;;;10.1;55.3
79347;BME280;68815;48.810;44.482;2023-09-08T03:29:34;100857;;;10.1;55.2
79347;BME280;68815;48.810;44.482;2023-09-08T03:32:36;100858;;;10.1;55.3
79347;BME280;68815;48.810;44.482;2023-09-08T03:35:38;100858;;;10.2;55.5
79347;BME280;68815;48.810;44.482;2023-09-08T03:38:39;100859;;;10.3;55.5
79347;BME280;68815;48.810;44.482;2023-09-08T03:41:40;100861;;;10.4;55.1
79347;BME280;68815;48.810;44.482;2023-09-08T03:44:42;100864;;;10.5;55
79347;BME280;68815;48.810;44.482;2023-09-08T03:47:44;100860;;;10.7;54.6
79347;BME280;68815;48.810;44.482;2023-09-08T03:50:45;100867;;;10.7;54.7
79347;BME280;68815;48.810;44.482;2023-09-08T03:53:47;100861;;;11;54
79347;BME280;68815;48.810;44.482;2023-09-08T03:56:48;100858;;;11.3;53.6
79347;BME280;68815;48.810;44.482;2023-09-08T03:59:49;100859;;;11.5;52.6
79347;BME280;68815;48.810;44.482;2023-09-08T04:02:51;100855;;;11.7;52.2
79347;BME280;68815;48.810;44.482;2023-09-08T04:05:52;100861;;;11.9;52.3
79347;BME280;68815;48.810;44.482;2023-09-08T04:08:53;100859;;;12.2;51.2
79347;BME280;68815;48.810;44.482;2023-09-08T04:11:55;100852;;;12.5;50.3
79347;BME280;68815;48.810;44.482;2023-09-08T04:14:57;100847;;;12.5;49.8
79347;BME280;68815;48.810;44.482;2023-09-08T04:17:59;100850;;;12.8;49.3
79347;BME280;68815;48.810;44.482;2023-09-08T04:21:01;100852;;;13.2;48.7
79347;BME280;68815;48.810;44.482;2023-09-08T04:24:02;100846;;;13.5;47.5
79347;BME280;68815;48.810;44.482;2023-09-08T04:27:04;100845;;;13.9;46.5
79347;BME280;68815;48.810;44.482;2023-09-08T04:30:06;100838;;;14.3;45.4
79347;BME280;68815;48.810;44.482;2023-09-08T04:33:09;100842;;;14.6;45.1
79347;BME280;68815;48.810;44.482;2023-09-08T04:36:10;100842;;;15;44.6
79347;BME280;68815;48.810;44.482;2023-09-08T04:39:11;100841;;;15.5;43.4
79347;BME280;68815;48.810;44.482;2023-09-08T04:42:13;100838;;;15.9;42.2
79347;BME280;68815;48.810;44.482;2023-09-08T04:45:15;100837;;;16.3;41.6
79347;BME280;68815;48.810;44.482;2023-09-08T04:48:16;100839;;;16.7;41.2
79347;BME280;68815;48.810;44.482;2023-09-08T04:51:18;100844;;;17.2;39.6
79347;BME280;68815;48.810;44.482;2023-09-08T04:54:19;100846;;;17.8;38.8
79347;BME280;68815;48.810;44.482;2023-09-08T04:57:21;100849;;;18.1;38.7
79347;BME280;68815;48.810;44.482;2023-09-08T05:00:22;100845;;;18.1;37.8
79347;BME280;68815;48.810;44.482;2023-09-08T05:03:24;100853;;;18.4;37.6
79347;BME280;68815;48.810;44.482;2023-09-08T05:06:25;100845;;;18.7;37.3
79347;BME280;68815;48.810;44.482;2023-09-08T05:09:26;100846;;;19;36.4
79347;BME280;68815;48.810;44.482;2023-09-08T05:12:28;100850;;;19.7;35.1
79347;BME280;68815;48.810;44.482;2023-09-08T05:15:29;100837;;;20.2;34.7
79347;BME280;68815;48.810;44.482;2023-09-08T05:18:31;100838;;;20.6;33.8
79347;BME280;68815;48.810;44.482;2023-09-08T05:21:34;100831;;;20.6;33.6
79347;BME280;68815;48.810;44.482;2023-09-08T05:24:36;100838;;;20.1;34.2
79347;BME280;68815;48.810;44.482;2023-09-08T05:27:38;100838;;;20.1;34.2
79347;BME280;68815;48.810;44.482;2023-09-08T05:30:40;100836;;;20.3;34
79347;BME280;68815;48.810;44.482;2023-09-08T05:33:41;100841;;;20.9;33.2
79347;BME280;68815;48.810;44.482;2023-09-08T05:36:43;100845;;;21.4;32.1
79347;BME280;68815;48.810;44.482;2023-09-08T05:39:44;100845;;;21.9;31.7
79347;BME280;68815;48.810;44.482;2023-09-08T05:42:45;100841;;;22;31.2
79347;BME280;68815;48.810;44.482;2023-09-08T05:45:47;100841;;;21.7;31.2
79347;BME280;68815;48.810;44.482;2023-09-08T05:48:48;100830;;;22.1;31.4
79347;BME280;68815;48.810;44.482;2023-09-08T05:51:50;100829;;;22.9;30
79347;BME280;68815;48.810;44.482;2023-09-08T05:54:51;100824;;;22.9;29.7
79347;BME280;68815;48.810;44.482;2023-09-08T05:57:52;100825;;;22.8;29.7
79347;BME280;68815;48.810;44.482;2023-09-08T06:00:54;100827;;;23.5;29.1
79347;BME280;68815;48.810;44.482;2023-09-08T06:03:56;100820;;;24.1;28.3
79347;BME280;68815;48.810;44.482;2023-09-08T06:06:57;100817;;;24.7;27.1
79347;BME280;68815;48.810;44.482;2023-09-08T06:09:59;100813;;;25.5;26.5
79347;BME280;68815;48.810;44.482;2023-09-08T06:13:00;100817;;;26.5;25.4
79347;BME280;68815;48.810;44.482;2023-09-08T06:16:01;100819;;;27.1;24.4
79347;BME280;68815;48.810;44.482;2023-09-08T06:19:03;100817;;;27.3;23.6
79347;BME280;68815;48.810;44.482;2023-09-08T06:22:05;100807;;;26.7;24.6
79347;BME280;68815;48.810;44.482;2023-09-08T06:25:07;100811;;;26.2;25.2
79347;BME280;68815;48.810;44.482;2023-09-08T06:28:09;100802;;;26.1;25
79347;BME280;68815;48.810;44.482;2023-09-08T06:31:10;100801;;;23.7;27.4
79347;BME280;68815;48.810;44.482;2023-09-08T06:34:12;100801;;;22.4;29.8
79347;BME280;68815;48.810;44.482;2023-09-08T06:37:13;100796;;;21.9;30.8
79347;BME280;68815;48.810;44.482;2023-09-08T06:40:15;100793;;;21.3;32
79347;BME280;68815;48.810;44.482;2023-09-08T06:43:16;100790;;;20.6;32.4
79347;BME280;68815;48.810;44.482;2023-09-08T06:46:18;100785;;;20.5;33.2
79347;BME280;68815;48.810;44.482;2023-09-08T06:49:19;100779;;;20.3;33.2
79347;BME280;68815;48.810;44.482;2023-09-08T06:52:21;100775;;;20;33.5
79347;BME280;68815;48.810;44.482;2023-09-08T06:55:22;100786;;;19.9;34.2
79347;BME280;68815;48.810;44.482;2023-09-08T07:01:55;100768;;;20.6;32.2
79347;BME280;68815;48.810;44.482;2023-09-08T07:04:56;100779;;;20.1;32.9
79347;BME280;68815;48.810;44.482;2023-09-08T07:11:29;100774;;;20.4;32.2
79347;BME280;68815;48.810;44.482;2023-09-08T07:14:30;100771;;;20.6;32.1
79347;BME280;68815;48.810;44.482;2023-09-08T07:17:32;100767;;;20.7;32.1
79347;BME280;68815;48.810;44.482;2023-09-08T07:20:34;100766;;;20.3;32.2
79347;BME280;68815;48.810;44.482;2023-09-08T07:23:36;100769;;;19.9;33
79347;BME280;68815;48.810;44.482;2023-09-08T07:26:37;100766;;;19.8;33.6
79347;BME280;68815;48.810;44.482;2023-09-08T07:29:38;100765;;;20;33.1
79347;BME280;68815;48.810;44.482;2023-09-08T07:32:40;100757;;;20;33.6
79347;BME280;68815;48.810;44.482;2023-09-08T07:35:42;100753;;;19.9;33.3
79347;BME280;68815;48.810;44.482;2023-09-08T07:38:44;100755;;;19.9;32.5
79347;BME280;68815;48.810;44.482;2023-09-08T07:41:45;100748;;;19.9;31.9
79347;BME280;68815;48.810;44.482;2023-09-08T07:44:47;100742;;;20.1;32.1
79347;BME280;68815;48.810;44.482;2023-09-08T07:47:49;100740;;;20;31.3
79347;BME280;68815;48.810;44.482;2023-09-08T07:50:50;100745;;;19.9;30.6
79347;BME280;68815;48.810;44.482;2023-09-08T07:53:53;100742;;;19.8;31.4
79347;BME280;68815;48.810;44.482;2023-09-08T07:56:54;100736;;;20;30.7
79347;BME280;68815;48.810;44.482;2023-09-08T07:59:56;100732;;;20.1;30.6
79347;BME280;68815;48.810;44.482;2023-09-08T08:02:58;100737;;;20.2;30.8
79347;BME280;68815;48.810;44.482;2023-09-08T08:06:00;100729;;;20;30.7
79347;BME280;68815;48.810;44.482;2023-09-08T08:09:02;100724;;;19.9;31
79347;BME280;68815;48.810;44.482;2023-09-08T08:12:04;100714;;;20;31.3
79347;BME280;68815;48.810;44.482;2023-09-08T08:15:06;100724;;;19.9;31.3
79347;BME280;68815;48.810;44.482;2023-09-08T08:18:08;100723;;;19.8;31.4
79347;BME280;68815;48.810;44.482;2023-09-08T08:21:09;100716;;;19.8;31.3
79347;BME280;68815;48.810;44.482;2023-09-08T08:24:11;100715;;;19.5;30.9
79347;BME280;68815;48.810;44.482;2023-09-08T08:27:13;100708;;;19.5;30.9
79347;BME280;68815;48.810;44.482;2023-09-08T08:30:14;100708;;;19.4;31
79347;BME280;68815;48.810;44.482;2023-09-08T08:33:24;100702;;;19.6;31.2
79347;BME280;68815;48.810;44.482;2023-09-08T08:36:25;100701;;;20;30.2
79347;BME280;68815;48.810;44.482;2023-09-08T08:39:27;100709;;;19.6;31.1
79347;BME280;68815;48.810;44.482;2023-09-08T08:42:31;100697;;;19.6;31
79347;BME280;68815;48.810;44.482;2023-09-08T08:45:33;100702;;;19;30.9
79347;BME280;68815;48.810;44.482;2023-09-08T08:48:35;100702;;;18.2;32.1
79347;BME280;68815;48.810;44.482;2023-09-08T08:51:38;100704;;;18.5;32.3
79347;BME280;68815;48.810;44.482;2023-09-08T08:54:40;100693;;;18.8;31.5
79347;BME280;68815;48.810;44.482;2023-09-08T09:01:58;100685;;;19.3;31.6
79347;BME280;68815;48.810;44.482;2023-09-08T09:05:00;100678;;;19.2;31.9
79347;BME280;68815;48.810;44.482;2023-09-08T09:08:03;100683;;;19.2;31.4
79347;BME280;68815;48.810;44.482;2023-09-08T09:11:05;100676;;;19;31
79347;BME280;68815;48.810;44.482;2023-09-08T09:14:06;100674;;;18.8;31
79347;BME280;68815;48.810;44.482;2023-09-08T09:17:10;100669;;;18.8;31.5
79347;BME280;68815;48.810;44.482;2023-09-08T09:20:13;100681;;;19.3;31.6
79347;BME280;68815;48.810;44.482;2023-09-08T09:23:26;100666;;;19.6;30.7
79347;BME280;68815;48.810;44.482;2023-09-08T09:26:28;100662;;;19.6;30.8
79347;BME280;68815;48.810;44.482;2023-09-08T09:29:31;100658;;;19.7;30.4
79347;BME280;68815;48.810;44.482;2023-09-08T09:32:34;100658;;;19.2;31.4
79347;BME280;68815;48.810;44.482;2023-09-08T09:35:39;100647;;;19.1;31.6
79347;BME280;68815;48.810;44.482;2023-09-08T09:38:42;100653;;;19.2;31
79347;BME280;68815;48.810;44.482;2023-09-08T09:41:44;100647;;;19.4;31.4
79347;BME280;68815;48.810;44.482;2023-09-08T09:44:46;100647;;;19.1;31
79347;BME280;68815;48.810;44.482;2023-09-08T09:47:48;100652;;;19.1;31.8
79347;BME280;68815;48.810;44.482;2023-09-08T09:50:50;100645;;;18.9;31.3
79347;BME280;68815;48.810;44.482;2023-09-08T09:53:55;100652;;;19.5;30.6
79347;BME280;68815;48.810;44.482;2023-09-08T09:56:56;100659;;;19.8;29.6
79347;BME280;68815;48.810;44.482;2023-09-08T09:59:58;100651;;;20;28.6
79347;BME280;68815;48.810;44.482;2023-09-08T10:03:01;100645;;;20;29
79347;BME280;68815;48.810;44.482;2023-09-08T10:06:02;100641;;;19.9;28.8
79347;BME280;68815;48.810;44.482;2023-09-08T10:09:05;100646;;;19.4;30.1
79347;BME280;68815;48.810;44.482;2023-09-08T10:12:08;100658;;;19;30.7
79347;BME280;68815;48.810;44.482;2023-09-08T10:15:11;100644;;;18.6;31.3
79347;BME280;68815;48.810;44.482;2023-09-08T10:18:13;100633;;;18.9;30.6
79347;BME280;68815;48.810;44.482;2023-09-08T10:21:18;100631;;;18.9;30.8
79347;BME280;68815;48.810;44.482;2023-09-08T10:24:24;100634;;;19.1;31.3
79347;BME280;68815;48.810;44.482;2023-09-08T10:27:28;100624;;;19.4;30.7
79347;BME280;68815;48.810;44.482;2023-09-08T10:30:30;100628;;;20;29.5
79347;BME280;68815;48.810;44.482;2023-09-08T10:33:32;100621;;;20.2;28.6
79347;BME280;68815;48.810;44.482;2023-09-08T10:36:34;100626;;;20.1;28.6
79347;BME280;68815;48.810;44.482;2023-09-08T10:39:36;100627;;;19.7;29
79347;BME280;68815;48.810;44.482;2023-09-08T10:42:40;100628;;;19.3;29.8
79347;BME280;68815;48.810;44.482;2023-09-08T10:45:41;100628;;;19.1;30.3
79347;BME280;68815;48.810;44.482;2023-09-08T10:48:43;100619;;;19.3;30
79347;BME280;68815;48.810;44.482;2023-09-08T10:51:47;100614;;;19.6;29.6
79347;BME280;68815;48.810;44.482;2023-09-08T10:54:50;100605;;;19.8;29.7
79347;BME280;68815;48.810;44.482;2023-09-08T10:57:54;100610;;;19.5;29.7
79347;BME280;68815;48.810;44.482;2023-09-08T11:00:59;100610;;;19.5;29.5
79347;BME280;68815;48.810;44.482;2023-09-08T11:04:04;100606;;;19.3;30
79347;BME280;68815;48.810;44.482;2023-09-08T11:07:05;100603;;;19.4;29.8
79347;BME280;68815;48.810;44.482;2023-09-08T11:10:07;100593;;;19.6;29.1
79347;BME280;68815;48.810;44.482;2023-09-08T11:13:09;100590;;;19.3;28.9
79347;BME280;68815;48.810;44.482;2023-09-08T11:16:11;100585;;;19.3;29.6
79347;BME280;68815;48.810;44.482;2023-09-08T11:19:13;100586;;;19.3;29.6
79347;BME280;68815;48.810;44.482;2023-09-08T11:22:15;100583;;;19.7;28.8
79347;BME280;68815;48.810;44.482;2023-09-08T11:25:18;100581;;;19.9;28.4
79347;BME280;68815;48.810;44.482;2023-09-08T11:28:22;100574;;;19.9;27.6
79347;BME280;68815;48.810;44.482;2023-09-08T11:31:24;100578;;;19.5;28.5
79347;BME280;68815;48.810;44.482;2023-09-08T11:34:26;100568;;;18.9;28.5
79347;BME280;68815;48.810;44.482;2023-09-08T11:37:27;100571;;;19;28.8
79347;BME280;68815;48.810;44.482;2023-09-08T11:40:30;100567;;;19.4;28.4
79347;BME280;68815;48.810;44.482;2023-09-08T11:43:32;100560;;;19.6;28
79347;BME280;68815;48.810;44.482;2023-09-08T11:46:33;100560;;;19.8;28.6
79347;BME280;68815;48.810;44.482;2023-09-08T11:49:35;100558;;;20;29.3
79347;BME280;68815;48.810;44.482;2023-09-08T11:52:37;100556;;;20;28.1
79347;BME280;68815;48.810;44.482;2023-09-08T11:55:39;100555;;;20;28.1
79347;BME280;68815;48.810;44.482;2023-09-08T11:58:41;100545;;;19.8;27.7
79347;BME280;68815;48.810;44.482;2023-09-08T12:01:43;100545;;;19.5;27.5
79347;BME280;68815;48.810;44.482;2023-09-08T12:04:45;100549;;;19.4;28.3
79347;BME280;68815;48.810;44.482;2023-09-08T12:07:47;100543;;;19.4;28.5
79347;BME280;68815;48.810;44.482;2023-09-08T12:10:48;100546;;;19.5;28
79347;BME280;68815;48.810;44.482;2023-09-08T12:13:50;100537;;;19.6;27.7
79347;BME280;68815;48.810;44.482;2023-09-08T12:17:04;100537;;;19.5;28.4
79347;BME280;68815;48.810;44.482;2023-09-08T12:20:12;100537;;;19.7;28.5
79347;BME280;68815;48.810;44.482;2023-09-08T12:23:18;100528;;;19.6;28.5
79347;BME280;68815;48.810;44.482;2023-09-08T12:26:21;100526;;;19.5;28.8
79347;BME280;68815;48.810;44.482;2023-09-08T12:29:22;100520;;;19.5;29.4
79347;BME280;68815;48.810;44.482;2023-09-08T12:32:25;100520;;;19.5;28.8
79347;BME280;68815;48.810;44.482;2023-09-08T12:35:27;100514;;;19.5;28.4
79347;BME280;68815;48.810;44.482;2023-09-08T12:38:30;100515;;;19.5;28.4
79347;BME280;68815;48.810;44.482;2023-09-08T12:41:32;100509;;;19.5;29
79347;BME280;68815;48.810;44.482;2023-09-08T12:44:34;100509;;;19.6;29.3
79347;BME280;68815;48.810;44.482;2023-09-08T12:47:36;100503;;;19.6;29.1
79347;BME280;68815;48.810;44.482;2023-09-08T12:50:38;100505;;;19.5;29.4
79347;BME280;68815;48.810;44.482;2023-09-08T12:53:40;100507;;;19.5;29.3
79347;BME280;68815;48.810;44.482;2023-09-08T12:56:42;100506;;;19.5;29.5
79347;BME280;68815;48.810;44.482;2023-09-08T12:59:44;100504;;;19.5;28.8
79347;BME280;68815;48.810;44.482;2023-09-08T13:02:46;100502;;;19.4;29
79347;BME280;68815;48.810;44.482;2023-09-08T13:05:47;100502;;;19.4;29.2
79347;BME280;68815;48.810;44.482;2023-09-08T13:08:49;100493;;;19.4;29.3
79347;BME280;68815;48.810;44.482;2023-09-08T13:11:50;100486;;;19.1;29.9
79347;BME280;68815;48.810;44.482;2023-09-08T13:14:52;100492;;;19.1;29.9
79347;BME280;68815;48.810;44.482;2023-09-08T13:17:54;100487;;;19;29.7
79347;BME280;68815;48.810;44.482;2023-09-08T13:20:57;100490;;;18.8;29.8
79347;BME280;68815;48.810;44.482;2023-09-08T13:23:58;100486;;;18.8;30.2
79347;BME280;68815;48.810;44.482;2023-09-08T13:27:11;100487;;;18.7;30.3
79347;BME280;68815;48.810;44.482;2023-09-08T13:30:14;100488;;;18.6;30.5
79347;BME280;68815;48.810;44.482;2023-09-08T13:33:22;100488;;;18.6;30.6
79347;BME280;68815;48.810;44.482;2023-09-08T13:36:24;100481;;;18.6;30.8
79347;BME280;68815;48.810;44.482;2023-09-08T13:39:26;100481;;;18.5;30.5
79347;BME280;68815;48.810;44.482;2023-09-08T13:42:27;100480;;;18.5;30.8
79347;BME280;68815;48.810;44.482;2023-09-08T13:45:34;100479;;;18.5;30.8
79347;BME280;68815;48.810;44.482;2023-09-08T13:48:36;100482;;;18.5;30.8
79347;BME280;68815;48.810;44.482;2023-09-08T13:51:37;100476;;;18.5;31.1
79347;BME280;68815;48.810;44.482;2023-09-08T13:54:39;100474;;;18.5;31.4
79347;BME280;68815;48.810;44.482;2023-09-08T13:57:40;100472;;;18.5;31.3
79347;BME280;68815;48.810;44.482;2023-09-08T14:00:42;100471;;;18.5;31.2
79347;BME280;68815;48.810;44.482;2023-09-08T14:03:43;100466;;;18.4;31.5
79347;BME280;68815;48.810;44.482;2023-09-08T14:06:46;100469;;;18.3;31.2
79347;BME280;68815;48.810;44.482;2023-09-08T14:09:53;100464;;;18.3;31.4
79347;BME280;68815;48.810;44.482;2023-09-08T14:12:55;100458;;;18.3;31.3
79347;BME280;68815;48.810;44.482;2023-09-08T14:16:02;100458;;;18.2;31.5
79347;BME280;68815;48.810;44.482;2023-09-08T14:19:04;100452;;;18.1;31.3
79347;BME280;68815;48.810;44.482;2023-09-08T14:22:05;100453;;;18;31.5
79347;BME280;68815;48.810;44.482;2023-09-08T14:25:07;100454;;;18.1;31.5
79347;BME280;68815;48.810;44.482;2023-09-08T14:28:08;100451;;;18.1;31.5
79347;BME280;68815;48.810;44.482;2023-09-08T14:31:15;100447;;;18.1;31.6
79347;BME280;68815;48.810;44.482;2023-09-08T14:34:18;100441;;;18;31.4
79347;BME280;68815;48.810;44.482;2023-09-08T14:37:20;100448;;;18;32
79347;BME280;68815;48.810;44.482;2023-09-08T14:40:22;100439;;;18;31.8
79347;BME280;68815;48.810;44.482;2023-09-08T14:43:24;100439;;;18;31.9
79347;BME280;68815;48.810;44.482;2023-09-08T14:46:25;100437;;;18;32
79347;BME280;68815;48.810;44.482;2023-09-08T14:49:27;100435;;;18;31.9
79347;BME280;68815;48.810;44.482;2023-09-08T14:52:28;100431;;;17.9;32.3
79347;BME280;68815;48.810;44.482;2023-09-08T14:55:30;100434;;;17.8;32.4
79347;BME280;68815;48.810;44.482;2023-09-08T14:58:31;100436;;;17.9;32.4
79347;BME280;68815;48.810;44.482;2023-09-08T15:01:33;100435;;;17.8;32.7
79347;BME280;68815;48.810;44.482;2023-09-08T15:04:34;100433;;;17.7;32.9
79347;BME280;68815;48.810;44.482;2023-09-08T15:07:36;100432;;;17.6;33.4
79347;BME280;68815;48.810;44.482;2023-09-08T15:10:37;100434;;;17.7;33.2
79347;BME280;68815;48.810;44.482;2023-09-08T15:13:39;100431;;;17.7;33.3
79347;BME280;68815;48.810;44.482;2023-09-08T15:16:40;100432;;;17.7;33.5
79347;BME280;68815;48.810;44.482;2023-09-08T15:19:42;100431;;;17.8;33.3
79347;BME280;68815;48.810;44.482;2023-09-08T15:22:43;100429;;;17.8;33.6
79347;BME280;68815;48.810;44.482;2023-09-08T15:25:50;100432;;;17.8;33.6
79347;BME280;68815;48.810;44.482;2023-09-08T15:28:52;100430;;;17.9;33.7
79347;BME280;68815;48.810;44.482;2023-09-08T15:31:53;100429;;;17.8;34.1
79347;BME280;68815;48.810;44.482;2023-09-08T15:34:55;100432;;;17.8;33.8
79347;BME280;68815;48.810;44.482;2023-09-08T15:37:56;100426;;;17.7;34
79347;BME280;68815;48.810;44.482;2023-09-08T15:41:16;100430;;;17.7;34.1
79347;BME280;68815;48.810;44.482;2023-09-08T15:44:18;100423;;;17.8;34
79347;BME280;68815;48.810;44.482;2023-09-08T15:47:19;100430;;;17.7;34.4
79347;BME280;68815;48.810;44.482;2023-09-08T15:50:21;100423;;;17.6;34.5
79347;BME280;68815;48.810;44.482;2023-09-08T15:53:22;100425;;;17.5;34.9
79347;BME280;68815;48.810;44.482;2023-09-08T15:56:24;100425;;;17.5;34.9
79347;BME280;68815;48.810;44.482;2023-09-08T15:59:25;100424;;;17.5;34.8
79347;BME280;68815;48.810;44.482;2023-09-08T16:02:26;100421;;;17.5;35
79347;BME280;68815;48.810;44.482;2023-09-08T16:05:28;100429;;;17.4;35.2
79347;BME280;68815;48.810;44.482;2023-09-08T16:08:29;100429;;;17.3;35.3
79347;BME280;68815;48.810;44.482;2023-09-08T16:11:31;100436;;;17.3;35.7
79347;BME280;68815;48.810;44.482;2023-09-08T16:14:32;100436;;;17.3;36
79347;BME280;68815;48.810;44.482;2023-09-08T16:17:34;100436;;;17.2;35.9
79347;BME280;68815;48.810;44.482;2023-09-08T16:20:35;100438;;;17.3;36
79347;BME280;68815;48.810;44.482;2023-09-08T16:23:37;100446;;;17.1;36.4
79347;BME280;68815;48.810;44.482;2023-09-08T16:26:38;100449;;;17.1;36.7
79347;BME280;68815;48.810;44.482;2023-09-08T16:29:40;100451;;;17.1;36.6
79347;BME280;68815;48.810;44.482;2023-09-08T16:32:41;100451;;;17.1;36.3
79347;BME280;68815;48.810;44.482;2023-09-08T16:35:43;100450;;;17.1;36.2
79347;BME280;68815;48.810;44.482;2023-09-08T16:38:44;100446;;;17.1;36.6
79347;BME280;68815;48.810;44.482;2023-09-08T16:41:46;100447;;;17;36.8
79347;BME280;68815;48.810;44.482;2023-09-08T16:44:49;100446;;;17.1;37
79347;BME280;68815;48.810;44.482;2023-09-08T16:47:50;100446;;;17;36.9
79347;BME280;68815;48.810;44.482;2023-09-08T16:50:52;100445;;;17;36.9
79347;BME280;68815;48.810;44.482;2023-09-08T16:53:53;100446;;;17.1;36.7
79347;BME280;68815;48.810;44.482;2023-09-08T16:56:55;100447;;;17.1;37.1
79347;BME280;68815;48.810;44.482;2023-09-08T16:59:57;100444;;;17.1;37
79347;BME280;68815;48.810;44.482;2023-09-08T17:02:58;100442;;;17.1;37.3
79347;BME280;68815;48.810;44.482;2023-09-08T17:06:00;100444;;;17;37.5